Weather Data

Pearl Creek Farm: 8878 N Farm Road 75, Walnut Grove MO 65770

<== Previous Day (Wednesday 23 Aug 2017) | Next Day (Friday 25 Aug 2017) ==>

Summary Precipitation Data For Thursday 24 August 2017

ElementValueUnits
PrecipitationT
Notes(none)
SourcePearl Creek Farm

Summary Temperature Data For Thursday 24 August 2017

ElementValueUnits
High Temperature80 oF
Low Temperature59 oF
Average Temperature70 oF
High Humidity84 %
Low Humidity49 %
Average Humidity68 %
SourceSpringfield-Branson National Airport (SGF)

Detail Temperature Data For Thursday 24 August 2017

Date / TimeTemp (F)RH (%)Dew Pt (F)Report Date / TimeSource
2017-08-24 00:52:00 61 84 56.0 2017-12-29 17:00:26.17417 Springfield-Branson National Airport (SGF)
2017-08-24 01:52:00 60 84 55.0 2017-12-29 17:00:26.17417 Springfield-Branson National Airport (SGF)
2017-08-24 02:52:00 61 81 55.0 2017-12-29 17:00:26.17417 Springfield-Branson National Airport (SGF)
2017-08-24 03:52:00 59 83 54.0 2017-12-29 17:00:26.17417 Springfield-Branson National Airport (SGF)
2017-08-24 04:52:00 60 80 54.0 2017-12-29 17:00:26.17417 Springfield-Branson National Airport (SGF)
2017-08-24 05:52:00 60 80 54.0 2017-12-29 17:00:26.17417 Springfield-Branson National Airport (SGF)
2017-08-24 06:52:00 63 78 56.0 2017-12-29 17:00:26.17417 Springfield-Branson National Airport (SGF)
2017-08-24 07:52:00 68 70 58.0 2017-12-29 17:00:26.17417 Springfield-Branson National Airport (SGF)
2017-08-24 08:52:00 72 71 62.0 2017-12-29 17:00:26.17417 Springfield-Branson National Airport (SGF)
2017-08-24 09:52:00 74 67 62.0 2017-12-29 17:00:26.17417 Springfield-Branson National Airport (SGF)
2017-08-24 10:52:00 76 58 60.0 2017-12-29 17:00:26.17417 Springfield-Branson National Airport (SGF)
2017-08-24 11:52:00 78 52 59.0 2017-12-29 17:00:26.17417 Springfield-Branson National Airport (SGF)
2017-08-24 12:52:00 79 49 58.0 2017-12-29 17:00:26.17417 Springfield-Branson National Airport (SGF)
2017-08-24 13:52:00 80 51 60.0 2017-12-29 17:00:26.17417 Springfield-Branson National Airport (SGF)
2017-08-24 14:52:00 79 52 60.0 2017-12-29 17:00:26.17417 Springfield-Branson National Airport (SGF)
2017-08-24 15:52:00 80 49 59.0 2017-12-29 17:00:26.17417 Springfield-Branson National Airport (SGF)
2017-08-24 16:52:00 79 52 60.0 2017-12-29 17:00:26.17417 Springfield-Branson National Airport (SGF)
2017-08-24 17:52:00 77 56 60.0 2017-12-29 17:00:26.17417 Springfield-Branson National Airport (SGF)
2017-08-24 18:52:00 74 64 61.0 2017-12-29 17:00:26.17417 Springfield-Branson National Airport (SGF)
2017-08-24 19:52:00 71 71 61.0 2017-12-29 17:00:26.17417 Springfield-Branson National Airport (SGF)
2017-08-24 20:52:00 69 73 60.0 2017-12-29 17:00:26.17417 Springfield-Branson National Airport (SGF)
2017-08-24 21:52:00 69 73 60.0 2017-12-29 17:00:26.17417 Springfield-Branson National Airport (SGF)
2017-08-24 22:52:00 69 70 59.0 2017-12-29 17:00:26.17417 Springfield-Branson National Airport (SGF)
2017-08-24 23:52:00 68 73 59.0 2017-12-29 17:00:26.17417 Springfield-Branson National Airport (SGF)

A total of 24 rows are displayed.